Time;durP1;ratioP1;P1;durP2;ratioP2;P2;SDS_P1;SDS_P2;PMS_P1;PMS_P2;Temp;Humidity;BMP_temperature;BMP_pressure;BME280_temperature;BME280_humidity;BME280_pressure;Samples;Min_cycle;Max_cycle;Signal;HPM_P1;HPM_P2
2023/03/24 00:00:30;;;;;;;28.03;14.40;;;;;;;10.75;57.52;100461.73;124721;1099;104172;-71
2023/03/24 00:03:24;;;;;;;30.90;14.00;;;;;;;10.72;57.35;100469.50;124778;1099;104242;-70
2023/03/24 00:06:00;;;;;;;24.77;14.07;;;;;;;10.70;57.59;100473.78;124765;1098;104178;-71
2023/03/24 00:08:35;;;;;;;25.93;14.67;;;;;;;10.70;57.78;100479.03;124787;1099;101875;-71
2023/03/24 00:11:10;;;;;;;28.00;16.17;;;;;;;10.68;57.76;100464.98;124707;1099;101890;-71
2023/03/24 00:13:42;;;;;;;27.53;14.53;;;;;;;10.67;57.79;100472.80;124714;1097;104209;-70
2023/03/24 00:16:15;;;;;;;26.83;14.53;;;;;;;10.67;57.73;100467.55;124717;1099;101871;-71
2023/03/24 00:18:51;;;;;;;28.45;15.18;;;;;;;10.64;57.98;100468.32;124756;1099;104182;-71
2023/03/24 00:21:24;;;;;;;26.43;13.90;;;;;;;10.61;58.00;100478.70;124692;1099;104277;-72
2023/03/24 00:23:57;;;;;;;28.63;13.47;;;;;;;10.53;58.20;100473.22;124375;1102;104226;-71
2023/03/24 00:26:28;;;;;;;27.05;13.95;;;;;;;10.49;57.86;100445.08;124726;1099;104283;-71
2023/03/24 00:29:00;;;;;;;28.65;14.35;;;;;;;10.46;58.33;100425.73;124357;1102;104256;-71
2023/03/24 00:31:32;;;;;;;31.33;16.40;;;;;;;10.42;58.27;100420.37;124330;1099;104329;-70
2023/03/24 00:34:05;;;;;;;29.50;16.97;;;;;;;10.40;58.60;100415.91;124222;1099;104197;-71
2023/03/24 00:36:37;;;;;;;30.10;16.75;;;;;;;10.34;58.73;100420.94;124575;1099;104268;-70
2023/03/24 00:39:08;;;;;;;32.30;17.17;;;;;;;10.30;58.34;100409.42;124300;1102;104139;-71
2023/03/24 00:41:40;;;;;;;30.20;16.50;;;;;;;10.31;58.64;100407.67;124458;1099;104204;-70
2023/03/24 00:44:16;;;;;;;27.30;15.23;;;;;;;10.31;58.97;100407.67;124751;1099;101897;-72
2023/03/24 00:46:54;;;;;;;28.23;16.30;;;;;;;10.31;58.60;100408.55;124282;1102;104420;-71
2023/03/24 00:52:43;;;;;;;27.57;15.50;;;;;;;10.37;59.50;100416.67;124374;1102;104245;-71
2023/03/24 00:55:15;;;;;;;31.43;16.87;;;;;;;10.39;59.07;100415.02;124093;1102;101940;-71
2023/03/24 00:57:49;;;;;;;30.13;17.27;;;;;;;10.39;59.10;100412.40;124119;1102;104262;-71
2023/03/24 01:00:23;;;;;;;30.57;16.83;;;;;;;10.38;59.01;100400.11;124091;1102;104169;-71
2023/03/24 01:02:56;;;;;;;30.02;16.55;;;;;;;10.36;58.95;100393.02;124115;1102;102418;-71
2023/03/24 01:05:30;;;;;;;29.27;16.15;;;;;;;10.35;59.29;100393.88;124101;1103;104214;-71
2023/03/24 01:08:03;;;;;;;31.80;16.83;;;;;;;10.34;59.38;100390.34;124147;1102;104212;-71
2023/03/24 01:10:48;;;;;;;28.50;16.20;;;;;;;10.35;59.38;100397.38;124126;1102;104175;-74
2023/03/24 01:13:21;;;;;;;31.80;17.57;;;;;;;10.35;59.57;100396.50;124138;1102;104182;-71
2023/03/24 01:15:53;;;;;;;31.13;16.57;;;;;;;10.35;59.40;100399.13;124081;1102;104255;-71
2023/03/24 01:18:24;;;;;;;28.67;16.23;;;;;;;10.34;59.51;100398.20;124081;1102;104403;-72
2023/03/24 01:20:57;;;;;;;30.67;17.07;;;;;;;10.34;59.96;100405.20;124067;1102;104351;-71
2023/03/24 01:23:30;;;;;;;30.87;17.13;;;;;;;10.33;59.58;100404.31;124081;1102;104370;-71
2023/03/24 01:26:07;;;;;;;30.27;16.70;;;;;;;10.31;59.82;100398.06;124172;1102;104178;-71
2023/03/24 01:28:42;;;;;;;31.63;17.87;;;;;;;10.31;59.86;100395.44;124036;1102;102042;-71
2023/03/24 01:31:13;;;;;;;33.40;16.80;;;;;;;10.31;60.17;100391.94;124130;1102;104193;-73
2023/03/24 01:33:45;;;;;;;30.33;16.73;;;;;;;10.31;59.84;100397.19;124092;1102;104204;-71
2023/03/24 01:36:16;;;;;;;32.70;17.70;;;;;;;10.28;59.73;100400.58;124158;1102;101864;-71
2023/03/24 01:38:48;;;;;;;30.40;17.50;;;;;;;10.25;59.86;100398.77;124077;1102;104329;-71
2023/03/24 01:41:19;;;;;;;32.10;18.30;;;;;;;10.25;59.89;100398.77;124093;1102;101973;-71
2023/03/24 01:43:50;;;;;;;31.27;18.00;;;;;;;10.23;60.31;100400.42;124045;1105;104233;-72
2023/03/24 01:46:25;;;;;;;30.57;17.73;;;;;;;10.22;60.55;100405.61;124106;1102;102322;-71
2023/03/24 01:49:01;;;;;;;33.73;19.23;;;;;;;10.20;60.06;100402.93;124092;1102;104743;-71
2023/03/24 01:51:35;;;;;;;35.47;18.63;;;;;;;10.19;60.48;100405.50;124095;1105;104248;-73
2023/03/24 01:54:08;;;;;;;35.27;18.33;;;;;;;10.18;60.74;100403.73;123999;1105;105508;-71
2023/03/24 01:56:44;;;;;;;31.57;17.85;;;;;;;10.18;60.58;100404.62;124085;1102;104169;-71
2023/03/24 01:59:20;;;;;;;31.70;18.67;;;;;;;10.19;60.23;100406.41;124180;1104;104217;-71
2023/03/24 02:02:12;;;;;;;32.83;18.60;;;;;;;10.21;60.50;100409.09;124200;1102;104242;-71
2023/03/24 02:04:52;;;;;;;35.83;19.50;;;;;;;10.21;60.74;100414.33;124078;1102;119066;-71
2023/03/24 02:07:32;;;;;;;31.97;18.07;;;;;;;10.19;61.09;100419.52;124121;1105;104211;-71
2023/03/24 02:10:09;;;;;;;34.47;18.63;;;;;;;10.18;61.26;100422.97;124135;1102;104211;-71
2023/03/24 02:12:41;;;;;;;32.33;18.73;;;;;;;10.17;60.62;100431.66;124153;1102;103377;-73
2023/03/24 02:15:15;;;;;;;33.80;19.17;;;;;;;10.20;61.27;100430.89;124095;1105;101964;-71
2023/03/24 02:17:53;;;;;;;;;;;;;;;10.19;60.84;100422.14;124105;1102;102210;-71
2023/03/24 02:21:00;;;;;;;31.40;17.47;;;;;;;10.20;61.21;100425.65;124029;1102;101991;-71
2023/03/24 02:23:57;;;;;;;31.53;18.03;;;;;;;10.20;60.97;100425.65;124051;1105;104172;-71
2023/03/24 02:27:09;;;;;;;34.20;19.20;;;;;;;10.19;60.99;100422.14;124168;1102;101826;-73
2023/03/24 02:30:11;;;;;;;34.80;19.13;;;;;;;10.17;61.09;100417.67;124005;1102;104838;-71
2023/03/24 02:33:24;;;;;;;32.37;18.47;;;;;;;10.15;61.11;100407.13;124067;1105;102090;-71
2023/03/24 02:36:32;;;;;;;30.65;18.05;;;;;;;10.13;61.38;100410.52;124005;1102;107529;-73
2023/03/24 02:39:47;;;;;;;32.93;18.60;;;;;;;10.11;61.52;100404.34;124042;1105;104159;-71
2023/03/24 02:42:23;;;;;;;;;;;;;;;10.05;61.39;100395.42;124109;1102;101830;-71
2023/03/24 02:45:04;;;;;;;32.83;18.50;;;;;;;10.02;61.36;100395.31;124041;1105;101915;-71
2023/03/24 02:47:44;;;;;;;33.67;18.70;;;;;;;9.99;61.87;100397.83;124111;1106;104341;-71
2023/03/24 02:50:25;;;;;;;35.83;20.10;;;;;;;9.99;61.62;100397.83;124011;1102;102328;-71
2023/03/24 02:53:07;;;;;;;33.97;18.83;;;;;;;9.99;61.36;100397.83;124014;1106;101929;-71
2023/03/24 02:55:46;;;;;;;35.87;20.03;;;;;;;9.98;61.44;100398.66;124090;1105;101898;-71
2023/03/24 02:58:22;;;;;;;33.83;19.43;;;;;;;9.97;62.00;100398.59;124118;1105;104175;-71
2023/03/24 03:01:03;;;;;;;34.53;19.93;;;;;;;9.94;62.34;100402.02;124085;1102;101881;-72
2023/03/24 03:04:07;;;;;;;34.40;19.47;;;;;;;9.90;61.74;100398.37;123991;1105;101923;-71
2023/03/24 03:06:43;;;;;;;48.63;21.90;;;;;;;9.89;61.74;100400.94;124059;1105;104243;-71
2023/03/24 03:09:19;;;;;;;55.70;21.90;;;;;;;9.88;61.84;100396.55;124097;1105;104177;-73
2023/03/24 03:11:54;;;;;;;45.47;20.50;;;;;;;9.87;61.87;100393.02;124297;1102;104194;-71
2023/03/24 03:14:31;;;;;;;34.10;19.37;;;;;;;9.86;62.11;100395.58;124110;1102;104208;-71
2023/03/24 03:17:06;;;;;;;34.60;19.33;;;;;;;9.86;62.07;100400.82;124154;1102;104248;-71
2023/03/24 03:19:42;;;;;;;36.37;20.23;;;;;;;9.86;62.38;100406.06;124103;1102;104188;-73
2023/03/24 03:22:19;;;;;;;35.53;19.27;;;;;;;9.83;62.49;100396.37;124259;1102;104195;-71
2023/03/24 03:24:55;;;;;;;39.87;20.60;;;;;;;9.82;62.19;100404.19;124298;1102;104220;-73
2023/03/24 03:27:30;;;;;;;38.17;20.57;;;;;;;9.79;62.39;100406.69;124296;1102;101945;-71
2023/03/24 03:30:09;;;;;;;40.20;20.87;;;;;;;9.77;62.29;100400.48;124279;1102;104294;-71
2023/03/24 03:32:45;;;;;;;36.63;19.77;;;;;;;9.76;62.84;100396.98;124349;1102;104251;-71
2023/03/24 03:35:21;;;;;;;38.53;20.70;;;;;;;9.76;62.25;100406.58;124327;1102;104612;-72
2023/03/24 03:37:59;;;;;;;37.93;20.47;;;;;;;9.75;62.66;100408.28;124417;1102;104207;-71
2023/03/24 03:40:35;;;;;;;37.55;21.05;;;;;;;9.74;63.05;100409.14;124122;1102;102437;-72
2023/03/24 03:43:12;;;;;;;40.77;20.20;;;;;;;9.74;62.99;100410.84;124221;1102;102111;-72
2023/03/24 03:45:44;;;;;;;43.47;21.67;;;;;;;9.76;62.72;100409.20;124100;1102;104137;-71
2023/03/24 03:48:18;;;;;;;41.85;21.95;;;;;;;9.75;62.73;100404.78;124303;1102;104175;-71
2023/03/24 03:50:50;;;;;;;38.17;20.37;;;;;;;9.71;63.03;100399.42;124354;1102;102212;-71
2023/03/24 03:53:25;;;;;;;38.17;21.33;;;;;;;9.66;63.50;100385.27;124285;1102;101974;-71
2023/03/24 03:55:56;;;;;;;36.87;20.80;;;;;;;9.64;63.30;100392.16;124250;1102;104392;-71
2023/03/24 03:58:28;;;;;;;39.43;20.97;;;;;;;9.64;62.88;100396.52;124206;1102;101934;-71
2023/03/24 04:01:03;;;;;;;39.10;20.20;;;;;;;9.67;62.94;100400.13;124390;1102;104222;-71
2023/03/24 04:03:52;;;;;;;38.37;20.30;;;;;;;9.67;63.17;100400.13;124392;1102;101967;-71
2023/03/24 04:06:36;;;;;;;37.87;20.10;;;;;;;9.65;63.62;100403.55;124231;1102;101933;-71
2023/03/24 04:09:23;;;;;;;37.37;20.97;;;;;;;9.67;63.82;100399.25;124215;1102;104407;-72
2023/03/24 04:12:33;;;;;;;39.80;20.90;;;;;;;9.71;63.83;100404.66;124211;1102;102304;-72
2023/03/24 04:15:34;;;;;;;36.53;19.90;;;;;;;9.75;63.36;100396.92;124138;1105;104166;-71
2023/03/24 04:18:30;;;;;;;38.30;20.75;;;;;;;9.77;63.34;100398.77;124380;1102;101891;-71
2023/03/24 04:21:18;;;;;;;38.13;20.67;;;;;;;9.80;63.54;100404.13;124360;1102;103199;-74
2023/03/24 04:24:02;;;;;;;38.90;20.25;;;;;;;9.82;63.91;100409.42;124146;1102;104348;-73
2023/03/24 04:26:40;;;;;;;40.12;20.60;;;;;;;9.81;63.99;100405.89;124186;1102;104181;-72
2023/03/24 04:29:18;;;;;;;38.30;20.57;;;;;;;9.80;63.81;100411.99;124366;1102;104176;-72
2023/03/24 04:31:53;;;;;;;38.57;20.93;;;;;;;9.80;63.97;100411.99;124424;1102;102393;-70
2023/03/24 04:34:29;;;;;;;38.97;20.40;;;;;;;9.81;63.55;100420.73;124328;1102;104318;-73
2023/03/24 04:37:11;;;;;;;38.63;20.63;;;;;;;9.84;64.22;100426.09;124193;1102;104185;-71
2023/03/24 04:40:04;;;;;;;36.10;20.63;;;;;;;9.84;64.12;100428.71;124315;1102;102411;-71
2023/03/24 04:42:40;;;;;;;45.97;21.63;;;;;;;9.89;64.33;100437.63;124255;1102;101938;-71
2023/03/24 04:45:13;;;;;;;39.20;21.00;;;;;;;9.87;64.18;100442.81;124318;1102;104220;-71
2023/03/24 04:48:00;;;;;;;39.13;21.63;;;;;;;9.87;64.31;100440.19;124362;1101;104245;-70
2023/03/24 04:50:56;;;;;;;43.17;21.33;;;;;;;9.87;64.03;100439.31;124346;1103;104163;-71
2023/03/24 04:53:28;;;;;;;38.53;20.43;;;;;;;9.86;63.95;100433.19;124282;1102;104188;-71
2023/03/24 04:56:17;;;;;;;35.27;21.73;;;;;;;9.83;64.13;100426.91;124261;1102;102212;-71
2023/03/24 04:59:05;;;;;;;39.80;22.40;;;;;;;9.79;64.27;100430.27;124280;1102;104246;-74
2023/03/24 05:01:37;;;;;;;38.30;21.57;;;;;;;9.81;64.34;100433.84;124357;1102;102028;-70
2023/03/24 05:04:29;;;;;;;39.60;22.07;;;;;;;9.83;64.83;100442.64;124208;1101;104166;-70
2023/03/24 05:07:04;;;;;;;43.30;21.60;;;;;;;9.88;64.96;100438.48;124174;1102;101982;-70
2023/03/24 05:09:36;;;;;;;44.57;22.47;;;;;;;9.95;64.38;100445.72;124244;1102;108120;-70
2023/03/24 05:12:07;;;;;;;41.87;23.07;;;;;;;10.02;64.62;100442.50;124326;1102;101924;-70
2023/03/24 05:14:51;;;;;;;38.43;22.13;;;;;;;10.14;64.96;100438.54;124287;1102;104304;-71
2023/03/24 05:17:23;;;;;;;41.40;23.03;;;;;;;10.22;64.99;100444.94;124578;1102;104054;-73
2023/03/24 05:19:54;;;;;;;41.20;22.27;;;;;;;10.31;64.95;100442.66;124085;1102;101940;-73
2023/03/24 05:22:26;;;;;;;42.27;23.33;;;;;;;10.42;65.14;100440.45;124214;1101;104187;-70
2023/03/24 05:24:57;;;;;;;40.23;22.87;;;;;;;10.53;65.07;100443.45;124246;1102;104363;-70
2023/03/24 05:27:28;;;;;;;43.57;23.70;;;;;;;10.61;64.88;100437.64;124244;1102;104191;-70
2023/03/24 05:30:00;;;;;;;43.23;24.57;;;;;;;10.69;64.86;100442.23;124161;1102;107043;-71
2023/03/24 05:32:33;;;;;;;38.93;23.77;;;;;;;10.77;64.70;100446.92;124200;1102;102036;-71
2023/03/24 05:35:04;;;;;;;41.97;24.40;;;;;;;10.87;64.71;100448.11;124247;1101;102313;-74
2023/03/24 05:37:38;;;;;;;37.73;22.70;;;;;;;10.95;64.67;100453.63;124549;1102;104315;-73
2023/03/24 05:40:11;;;;;;;41.93;23.83;;;;;;;11.03;64.61;100457.42;124271;1102;103560;-71
2023/03/24 05:42:51;;;;;;;41.80;23.90;;;;;;;11.10;64.66;100458.50;124304;1102;102156;-70
2023/03/24 05:45:23;;;;;;;41.50;24.00;;;;;;;11.15;64.62;100463.05;124334;1102;104198;-70
2023/03/24 05:47:55;;;;;;;39.10;24.43;;;;;;;11.22;64.59;100466.79;124377;1102;103478;-72
2023/03/24 05:50:32;;;;;;;46.07;24.30;;;;;;;11.30;64.62;100457.41;124316;1102;104319;-72
2023/03/24 05:53:03;;;;;;;43.30;23.97;;;;;;;11.36;64.32;100461.98;124323;1102;102764;-72
2023/03/24 05:55:52;;;;;;;55.30;25.67;;;;;;;11.46;64.65;100463.16;124505;1102;104310;-72
2023/03/24 05:58:47;;;;;;;41.80;24.37;;;;;;;11.56;64.35;100464.33;124509;1102;104460;-76
2023/03/24 06:01:21;;;;;;;43.53;23.83;;;;;;;11.65;64.50;100461.98;124552;1102;104388;-76
2023/03/24 06:04:04;;;;;;;46.90;25.23;;;;;;;11.72;64.40;100458.70;124402;1102;104198;-70
2023/03/24 06:06:59;;;;;;;41.67;23.97;;;;;;;11.78;64.52;100466.78;124638;1102;104236;-73
2023/03/24 06:09:34;;;;;;;55.20;24.53;;;;;;;11.89;64.46;100459.22;124501;1102;104165;-72
2023/03/24 06:12:06;;;;;;;41.50;23.73;;;;;;;12.00;64.28;100462.20;124616;1102;102475;-71
2023/03/24 06:14:39;;;;;;;44.25;24.60;;;;;;;12.09;64.03;100466.81;124613;1102;103889;-76
2023/03/24 06:17:15;;;;;;;45.70;25.53;;;;;;;12.18;64.05;100461.81;124583;1102;104248;-75
2023/03/24 06:19:48;;;;;;;40.38;24.30;;;;;;;12.26;63.88;100467.30;124620;1101;102691;-79
2023/03/24 06:22:33;;;;;;;41.15;24.57;;;;;;;12.32;63.67;100468.35;124594;1102;104304;-73
2023/03/24 06:25:07;;;;;;;42.80;24.27;;;;;;;12.32;63.51;100465.72;124661;1103;104262;-77
2023/03/24 06:27:45;;;;;;;43.10;24.63;;;;;;;12.38;63.49;100462.38;124558;1102;104223;-74
2023/03/24 06:30:18;;;;;;;43.13;24.77;;;;;;;12.45;63.43;100461.71;124582;1099;102875;-72
2023/03/24 06:32:50;;;;;;;42.60;24.67;;;;;;;12.52;63.62;100468.02;124840;1103;103004;-74
2023/03/24 06:35:21;;;;;;;39.27;23.10;;;;;;;12.58;63.23;100463.81;124731;1102;104137;-76
2023/03/24 06:38:02;;;;;;;37.80;22.53;;;;;;;12.68;63.38;100461.42;124148;1099;101984;-71
2023/03/24 06:40:35;;;;;;;33.77;20.53;;;;;;;12.76;62.96;100465.14;124563;1102;104185;-77
2023/03/24 06:43:07;;;;;;;34.70;19.87;;;;;;;12.87;62.90;100460.16;124777;1102;104197;-78
2023/03/24 06:45:39;;;;;;;;;;;;;;;12.99;62.59;100456.95;124980;1099;104376;-82
2023/03/24 06:48:12;;;;;;;36.73;20.10;;;;;;;13.08;62.91;100458.06;124891;1102;104222;-81
2023/03/24 06:50:43;;;;;;;40.53;19.63;;;;;;;13.19;62.65;100453.06;124310;1099;104220;-71
2023/03/24 06:53:15;;;;;;;36.53;20.00;;;;;;;13.31;62.50;100452.48;124341;1099;104156;-75
2023/03/24 06:55:48;;;;;;;32.63;18.90;;;;;;;13.44;62.68;100454.56;124217;1099;101877;-70
2023/03/24 06:58:21;;;;;;;42.75;20.48;;;;;;;13.56;62.13;100453.97;124197;1100;104325;-71
2023/03/24 07:01:13;;;;;;;40.33;19.20;;;;;;;13.74;62.55;100449.95;124220;1099;104310;-74
2023/03/24 07:03:53;;;;;;;35.20;19.37;;;;;;;13.87;62.36;100449.38;124190;1102;104220;-71
2023/03/24 07:06:34;;;;;;;36.90;19.15;;;;;;;14.04;62.18;100441.82;124187;1099;104169;-72
2023/03/24 07:09:14;;;;;;;34.23;19.30;;;;;;;14.20;60.98;100445.65;124275;1099;104153;-74
2023/03/24 07:11:45;;;;;;;33.03;18.43;;;;;;;14.33;60.79;100452.93;124389;1099;104225;-74
2023/03/24 07:14:17;;;;;;;39.43;20.60;;;;;;;14.48;60.85;100449.72;124579;1099;104242;-73
2023/03/24 07:16:51;;;;;;;48.97;20.47;;;;;;;14.63;60.56;100451.80;124281;1099;104201;-72
2023/03/24 07:19:31;;;;;;;33.80;18.50;;;;;;;14.77;60.45;100451.14;124198;1099;101820;-70
2023/03/24 07:22:20;;;;;;;36.10;20.10;;;;;;;14.90;60.64;100448.73;124244;1102;102016;-72
2023/03/24 07:25:20;;;;;;;30.70;18.37;;;;;;;15.02;59.05;100442.78;124032;1102;104227;-71
2023/03/24 07:27:57;;;;;;;36.00;20.13;;;;;;;15.16;59.30;100439.45;124207;1099;104390;-72
2023/03/24 07:30:29;;;;;;;33.10;19.40;;;;;;;15.28;58.99;100442.30;124178;1099;102115;-70
2023/03/24 07:33:01;;;;;;;37.23;19.27;;;;;;;15.42;59.37;100432.81;124212;1099;104243;-71
2023/03/24 07:35:34;;;;;;;33.50;19.20;;;;;;;15.56;59.50;100434.78;124129;1099;104268;-72
2023/03/24 07:38:05;;;;;;;34.20;19.17;;;;;;;15.69;58.76;100430.55;124195;1102;104283;-70
2023/03/24 07:40:37;;;;;;;33.10;19.13;;;;;;;15.80;59.06;100437.80;124167;1099;104242;-73
2023/03/24 07:43:11;;;;;;;33.13;18.47;;;;;;;15.88;58.12;100431.70;124240;1102;102351;-72
2023/03/24 07:46:19;;;;;;;44.43;20.13;;;;;;;15.97;57.63;100431.82;124149;1099;104262;-70
2023/03/24 07:48:51;;;;;;;35.37;19.07;;;;;;;16.06;57.85;100437.23;124186;1099;104179;-69
2023/03/24 07:51:23;;;;;;;31.73;18.03;;;;;;;16.15;57.86;100429.41;124174;1099;104175;-71
2023/03/24 07:54:04;;;;;;;32.70;20.00;;;;;;;16.23;57.43;100429.49;124187;1099;101999;-72
2023/03/24 07:56:40;;;;;;;32.53;18.10;;;;;;;16.31;57.43;100434.88;124239;1102;104214;-71
2023/03/24 07:59:16;;;;;;;39.67;19.20;;;;;;;16.42;57.10;100424.41;124200;1099;104261;-70
2023/03/24 08:01:55;;;;;;;30.47;18.43;;;;;;;16.57;57.73;100421.04;124163;1099;104287;-72
2023/03/24 08:04:43;;;;;;;35.53;19.37;;;;;;;16.69;57.33;100427.34;124158;1102;104211;-70
2023/03/24 08:07:35;;;;;;;35.37;19.40;;;;;;;16.80;56.28;100422.14;124001;1099;104252;-70
2023/03/24 08:10:08;;;;;;;33.70;19.47;;;;;;;16.92;55.83;100423.14;124127;1099;102171;-69
2023/03/24 08:12:40;;;;;;;32.05;19.35;;;;;;;17.02;55.31;100422.36;124219;1099;104175;-71
2023/03/24 08:15:12;;;;;;;30.63;18.27;;;;;;;17.17;56.37;100417.17;124128;1099;104165;-70
2023/03/24 08:17:43;;;;;;;37.50;19.53;;;;;;;17.32;55.50;100418.16;124140;1099;104245;-69
2023/03/24 08:20:15;;;;;;;33.30;18.27;;;;;;;17.44;55.38;100418.23;124136;1099;104239;-69
2023/03/24 08:22:49;;;;;;;33.07;19.33;;;;;;;17.54;55.63;100420.05;124130;1099;104227;-70
2023/03/24 08:25:22;;;;;;;33.40;18.67;;;;;;;17.60;54.99;100413.91;124147;1099;104313;-69
2023/03/24 08:27:54;;;;;;;28.97;17.23;;;;;;;17.69;54.88;100413.95;124151;1099;101913;-69
2023/03/24 08:30:28;;;;;;;27.37;15.83;;;;;;;17.77;54.42;100414.87;124108;1100;104189;-70
2023/03/24 08:33:03;;;;;;;;;;;;;;;17.90;53.09;100418.52;124171;1099;104623;-71
2023/03/24 08:35:38;;;;;;;32.40;17.27;;;;;;;18.05;53.64;100408.84;124222;1099;104249;-70
2023/03/24 08:38:11;;;;;;;27.30;15.73;;;;;;;18.16;53.17;100411.53;125009;1099;104257;-68
2023/03/24 08:40:43;;;;;;;29.53;16.47;;;;;;;18.24;52.88;100418.62;124128;1099;104290;-69
2023/03/24 08:43:16;;;;;;;29.75;16.05;;;;;;;18.37;52.72;100418.66;124154;1098;104283;-71
2023/03/24 08:45:48;;;;;;;28.25;16.00;;;;;;;18.45;52.45;100408.92;124228;1099;102382;-71
2023/03/24 08:48:22;;;;;;;29.47;16.97;;;;;;;18.50;52.92;100415.16;124232;1099;104172;-70
2023/03/24 08:50:51;;;;;;;;;;;;;;;18.54;50.21;100408.94;124166;1099;102319;-70
2023/03/24 08:53:23;;;;;;;33.00;17.00;;;;;;;18.68;51.68;100409.87;124195;1099;104210;-69
2023/03/24 08:55:55;;;;;;;28.07;16.50;;;;;;;18.73;51.73;100409.87;124242;1099;102217;-70
2023/03/24 08:58:27;;;;;;;26.27;16.50;;;;;;;18.73;51.51;100393.02;124162;1099;103403;-70
2023/03/24 09:00:58;;;;;;;29.00;16.43;;;;;;;18.73;50.88;100399.24;124200;1099;104233;-69
2023/03/24 09:03:30;;;;;;;26.40;15.70;;;;;;;18.79;49.99;100388.62;124189;1099;102480;-70
2023/03/24 09:06:03;;;;;;;25.50;15.57;;;;;;;18.83;51.19;100390.37;124187;1099;104169;-70
2023/03/24 09:08:34;;;;;;;28.90;15.90;;;;;;;18.95;51.01;100389.53;124181;1102;104182;-70
2023/03/24 09:11:06;;;;;;;29.50;18.10;;;;;;;19.12;49.60;100391.27;124216;1102;104172;-69
2023/03/24 09:13:38;;;;;;;28.47;16.73;;;;;;;19.23;50.12;100378.86;124230;1099;104162;-70
2023/03/24 09:16:10;;;;;;;31.43;17.57;;;;;;;19.29;50.11;100378.85;124181;1099;104345;-69
2023/03/24 09:18:42;;;;;;;28.60;16.40;;;;;;;19.40;49.50;100379.70;125661;1098;101820;-69
2023/03/24 09:21:14;;;;;;;26.77;17.30;;;;;;;19.41;49.30;100377.92;124209;1099;104369;-69
2023/03/24 09:23:48;;;;;;;32.98;15.30;;;;;;;19.39;50.06;100372.60;124159;1099;104188;-70
2023/03/24 09:26:21;;;;;;;30.65;17.37;;;;;;;19.45;48.63;100374.38;124263;1099;104224;-70
2023/03/24 09:28:54;;;;;;;27.05;15.53;;;;;;;19.48;48.65;100374.36;124139;1099;104328;-71
2023/03/24 09:31:26;;;;;;;28.60;17.05;;;;;;;19.50;48.58;100375.23;124207;1099;101870;-69
2023/03/24 09:33:59;;;;;;;28.37;16.20;;;;;;;19.53;48.93;100367.24;124238;1099;102458;-70
2023/03/24 09:36:33;;;;;;;31.93;17.23;;;;;;;19.60;48.48;100368.09;124471;1099;103382;-71
2023/03/24 09:39:10;;;;;;;27.87;16.97;;;;;;;19.56;48.68;100375.22;124187;1099;104217;-69
2023/03/24 09:41:50;;;;;;;26.87;15.33;;;;;;;19.58;47.52;100362.78;124200;1100;101922;-78
2023/03/24 09:44:32;;;;;;;26.47;15.33;;;;;;;19.69;47.82;100354.76;124151;1099;102316;-70
2023/03/24 09:47:12;;;;;;;32.67;16.33;;;;;;;19.84;47.58;100360.97;124186;1099;104300;-70
2023/03/24 09:49:50;;;;;;;28.47;15.20;;;;;;;19.94;46.49;100357.34;124110;1099;104415;-68
2023/03/24 09:52:29;;;;;;;26.27;14.97;;;;;;;19.97;47.32;100356.45;124206;1102;104160;-70
2023/03/24 09:55:02;;;;;;;32.17;16.33;;;;;;;20.03;46.84;100357.30;124121;1102;102201;-72
2023/03/24 09:57:39;;;;;;;26.17;15.32;;;;;;;20.11;47.23;100351.93;124252;1099;101932;-70
2023/03/24 10:00:22;;;;;;;29.40;16.00;;;;;;;20.16;47.09;100349.23;124175;1102;101980;-71
2023/03/24 10:02:57;;;;;;;28.50;15.15;;;;;;;20.20;47.04;100343.89;124187;1099;104328;-71
2023/03/24 10:05:35;;;;;;;28.80;16.47;;;;;;;20.22;47.08;100341.21;124238;1099;101971;-72
2023/03/24 10:08:16;;;;;;;28.17;15.90;;;;;;;20.27;45.83;100342.96;124150;1099;104166;-70
2023/03/24 10:11:02;;;;;;;25.20;15.07;;;;;;;20.29;45.85;100332.30;124182;1099;102244;-74
2023/03/24 10:13:50;;;;;;;34.97;17.17;;;;;;;20.34;46.05;100342.92;124324;1099;104322;-74
2023/03/24 10:16:29;;;;;;;30.33;15.83;;;;;;;20.33;45.85;100333.15;124819;1098;104236;-74
2023/03/24 10:19:15;;;;;;;28.25;14.90;;;;;;;20.36;45.82;100336.66;124734;1098;104166;-71
2023/03/24 10:22:03;;;;;;;26.10;15.93;;;;;;;20.40;45.20;100330.43;124277;1099;104297;-73
2023/03/24 10:24:52;;;;;;;29.57;15.73;;;;;;;20.47;45.04;100334.83;124679;1099;104230;-74
2023/03/24 10:27:36;;;;;;;25.70;15.30;;;;;;;20.51;44.35;100326.81;124758;1099;104165;-72
2023/03/24 10:30:19;;;;;;;26.47;15.83;;;;;;;20.54;44.12;100337.45;124462;1098;104223;-72
2023/03/24 10:32:54;;;;;;;25.50;15.27;;;;;;;20.60;44.93;100338.27;124671;1099;104172;-72
2023/03/24 10:35:37;;;;;;;26.83;14.07;;;;;;;20.62;44.88;100333.80;124258;1099;102023;-76
2023/03/24 10:38:23;;;;;;;25.23;14.80;;;;;;;20.63;44.02;100330.25;124198;1102;104248;-73
2023/03/24 10:40:56;;;;;;;28.70;14.33;;;;;;;20.69;43.74;100331.13;124651;1099;102042;-73
2023/03/24 10:43:30;;;;;;;29.27;16.53;;;;;;;20.70;44.27;100328.44;124649;1099;104111;-73
2023/03/24 10:46:03;;;;;;;26.17;14.00;;;;;;;20.71;43.88;100322.22;124708;1099;104230;-77
2023/03/24 10:48:48;;;;;;;;;;;;;;;20.76;42.38;100332.84;125138;1099;102348;-74
2023/03/24 10:51:28;;;;;;;22.07;12.97;;;;;;;20.78;43.41;100326.58;124924;1099;102209;-74
2023/03/24 10:54:21;;;;;;;25.93;13.80;;;;;;;20.78;43.30;100318.59;125033;1099;104213;-73
2023/03/24 10:57:05;;;;;;;26.53;13.90;;;;;;;20.79;43.30;100314.16;124728;1098;108005;-71
2023/03/24 10:59:47;;;;;;;22.70;14.00;;;;;;;20.78;42.31;100312.38;124206;1099;101972;-71
2023/03/24 11:02:22;;;;;;;25.03;12.20;;;;;;;20.81;42.92;100299.89;124563;1099;104213;-70
2023/03/24 11:04:58;;;;;;;23.50;12.87;;;;;;;20.81;42.00;100299.89;124757;1099;104166;-73
2023/03/24 11:07:37;;;;;;;22.33;11.97;;;;;;;20.82;42.56;100303.46;124667;1099;102005;-72
2023/03/24 11:10:17;;;;;;;20.73;11.70;;;;;;;20.84;41.77;100293.66;124526;1099;104248;-71
2023/03/24 11:13:06;;;;;;;22.97;13.07;;;;;;;20.83;41.30;100290.12;125108;1099;102481;-75
2023/03/24 11:15:38;;;;;;;21.47;11.97;;;;;;;20.88;41.09;100281.16;124593;1099;104626;-73
2023/03/24 11:18:18;;;;;;;24.50;13.00;;;;;;;20.89;40.91;100282.95;125167;1099;104233;-72
2023/03/24 11:20:57;;;;;;;22.42;11.57;;;;;;;20.89;40.74;100280.28;116163;1099;10001025;-69
2023/03/24 11:23:34;;;;;;;24.50;12.13;;;;;;;20.93;40.97;100276.69;124577;1099;104245;-71
2023/03/24 11:26:14;;;;;;;22.23;12.30;;;;;;;20.98;40.88;100272.18;125599;1099;104201;-76
2023/03/24 11:28:51;;;;;;;26.83;13.43;;;;;;;21.01;41.22;100275.69;124692;1099;102053;-70
2023/03/24 11:31:32;;;;;;;25.33;13.50;;;;;;;21.03;40.97;100257.00;124670;1099;104284;-71
2023/03/24 11:34:09;;;;;;;22.33;12.07;;;;;;;21.04;40.37;100264.11;124676;1099;104254;-72
2023/03/24 11:36:48;;;;;;;21.13;10.93;;;;;;;21.03;39.81;100259.67;124682;1099;104198;-72
2023/03/24 11:39:23;;;;;;;22.13;12.07;;;;;;;21.00;39.58;100251.70;124675;1099;104319;-72
2023/03/24 11:42:14;;;;;;;21.17;11.47;;;;;;;20.99;39.74;100245.49;124679;1099;102002;-72
2023/03/24 11:44:49;;;;;;;22.33;12.23;;;;;;;20.98;40.36;100241.05;124665;1099;104169;-72
2023/03/24 11:47:29;;;;;;;21.37;12.30;;;;;;;20.95;40.46;100232.20;124794;1099;101830;-74